Time;durP1;ratioP1;P1;durP2;ratioP2;P2;SDS_P1;SDS_P2;PMS_P1;PMS_P2;Temp;Humidity;BMP_temperature;BMP_pressure;BME280_temperature;BME280_humidity;BME280_pressure;Samples;Min_cycle;Max_cycle;Signal;HPM_P1;HPM_P2
2023/08/10 00:01:50;;;;;;;3.38;1.90;;;;;;;;;;5044741;28;20067;-69
2023/08/10 00:04:16;;;;;;;3.97;1.83;;;;;;;;;;5037774;28;20053;-69
2023/08/10 00:06:41;;;;;;;2.00;1.60;;;;;;;;;;5022471;28;20527;-68
2023/08/10 00:09:11;;;;;;;3.00;1.80;;;;;;;;;;5024087;28;20048;-68
2023/08/10 00:11:37;;;;;;;3.25;1.88;;;;;;;;;;5013293;28;20243;-68
2023/08/10 00:14:03;;;;;;;3.75;2.20;;;;;;;;;;5019739;28;20099;-69
2023/08/10 00:16:29;;;;;;;3.40;2.03;;;;;;;;;;5023619;28;20522;-68
2023/08/10 00:18:54;;;;;;;3.28;1.90;;;;;;;;;;5023461;28;20026;-68
2023/08/10 00:21:20;;;;;;;2.50;1.90;;;;;;;;;;5024389;28;20056;-69
2023/08/10 00:23:45;;;;;;;3.00;1.85;;;;;;;;;;5023484;28;20577;-69
2023/08/10 00:26:11;;;;;;;2.20;1.70;;;;;;;;;;5024100;28;20064;-68
2023/08/10 00:28:36;;;;;;;2.25;1.50;;;;;;;;;;5031023;28;20060;-68
2023/08/10 00:31:03;;;;;;;4.55;1.63;;;;;;;;;;5043610;28;20033;-68
2023/08/10 00:33:28;;;;;;;2.75;1.50;;;;;;;;;;5044368;28;20033;-68
2023/08/10 00:35:54;;;;;;;2.28;1.52;;;;;;;;;;5044384;28;20399;-69
2023/08/10 00:38:19;;;;;;;4.28;1.70;;;;;;;;;;5043535;28;20079;-69
2023/08/10 00:40:44;;;;;;;2.10;1.50;;;;;;;;;;5044103;28;20421;-69
2023/08/10 00:43:10;;;;;;;1.88;1.40;;;;;;;;;;5043644;28;20405;-68
2023/08/10 00:45:37;;;;;;;2.92;1.83;;;;;;;;;;5044396;28;20025;-69
2023/08/10 00:48:02;;;;;;;3.05;1.90;;;;;;;;;;5047331;28;20044;-68
2023/08/10 00:50:28;;;;;;;5.00;1.90;;;;;;;;;;5033863;28;20037;-68
2023/08/10 00:52:54;;;;;;;2.40;1.65;;;;;;;;;;5033072;28;20028;-69
2023/08/10 00:55:20;;;;;;;2.50;1.70;;;;;;;;;;5023753;28;20037;-69
2023/08/10 00:57:46;;;;;;;5.28;1.95;;;;;;;;;;5027683;28;20026;-68
2023/08/10 01:00:12;;;;;;;4.30;1.90;;;;;;;;;;5028719;28;20022;-68
2023/08/10 01:02:39;;;;;;;2.63;1.52;;;;;;;;;;5024934;28;20045;-68
2023/08/10 01:05:06;;;;;;;2.50;1.63;;;;;;;;;;5027369;28;20546;-68
2023/08/10 01:07:32;;;;;;;3.60;1.60;;;;;;;;;;5036860;28;20167;-68
2023/08/10 01:10:37;;;;;;;3.03;1.75;;;;;;;;;;5031048;28;20522;-68
2023/08/10 01:13:26;;;;;;;2.88;1.77;;;;;;;;;;5027628;28;20032;-68
2023/08/10 01:15:57;;;;;;;2.65;1.88;;;;;;;;;;5027207;28;20075;-68
2023/08/10 01:18:27;;;;;;;3.75;1.80;;;;;;;;;;5025752;28;20021;-68
2023/08/10 01:20:59;;;;;;;4.70;1.85;;;;;;;;;;5044828;28;20104;-68
2023/08/10 01:23:33;;;;;;;3.20;1.90;;;;;;;;;;5046608;28;20080;-68
2023/08/10 01:25:59;;;;;;;3.00;1.75;;;;;;;;;;5045598;28;20044;-68
2023/08/10 01:28:26;;;;;;;3.15;1.70;;;;;;;;;;5046402;28;20041;-68
2023/08/10 01:30:52;;;;;;;2.90;1.65;;;;;;;;;;5046290;28;20461;-68
2023/08/10 01:33:18;;;;;;;3.47;1.98;;;;;;;;;;5047365;28;20044;-68
2023/08/10 01:35:44;;;;;;;3.30;1.92;;;;;;;;;;5046461;28;20041;-68
2023/08/10 01:38:10;;;;;;;5.70;1.90;;;;;;;;;;5045896;28;20063;-68
2023/08/10 01:40:36;;;;;;;2.50;1.50;;;;;;;;;;5046944;28;20033;-68
2023/08/10 01:43:02;;;;;;;8.15;1.70;;;;;;;;;;5046553;28;20111;-68
2023/08/10 01:45:28;;;;;;;1.95;1.42;;;;;;;;;;5047161;28;20024;-68
2023/08/10 01:48:11;;;;;;;4.20;1.67;;;;;;;;;;5044650;28;20055;-68
2023/08/10 01:50:44;;;;;;;3.13;1.70;;;;;;;;;;5031210;28;20045;-68
2023/08/10 01:53:12;;;;;;;5.22;2.15;;;;;;;;;;5033579;28;20041;-68
2023/08/10 01:55:37;;;;;;;3.83;2.08;;;;;;;;;;5044164;28;20076;-68
2023/08/10 01:58:03;;;;;;;5.78;1.98;;;;;;;;;;5055990;28;20130;-68
2023/08/10 02:00:30;;;;;;;3.03;2.00;;;;;;;;;;5054423;28;20032;-68
2023/08/10 02:02:55;;;;;;;3.00;2.15;;;;;;;;;;5026326;28;20053;-68
2023/08/10 02:05:21;;;;;;;3.63;1.90;;;;;;;;;;5037037;28;20068;-68
2023/08/10 02:07:49;;;;;;;3.83;2.10;;;;;;;;;;5026370;28;20042;-68
2023/08/10 02:10:15;;;;;;;2.80;1.65;;;;;;;;;;5024913;28;20039;-68
2023/08/10 02:12:40;;;;;;;4.35;1.80;;;;;;;;;;5027058;28;20034;-68
2023/08/10 02:15:06;;;;;;;6.00;2.17;;;;;;;;;;5030490;28;20097;-68
2023/08/10 02:17:35;;;;;;;3.13;1.73;;;;;;;;;;5028610;28;20041;-68
2023/08/10 02:20:11;;;;;;;3.03;2.08;;;;;;;;;;5026045;28;20041;-68
2023/08/10 02:22:37;;;;;;;3.90;2.00;;;;;;;;;;5019921;28;20434;-68
2023/08/10 02:25:03;;;;;;;6.78;2.13;;;;;;;;;;5020495;28;20022;-68
2023/08/10 02:27:29;;;;;;;3.60;1.98;;;;;;;;;;5045018;28;20420;-68
2023/08/10 02:29:54;;;;;;;9.43;2.28;;;;;;;;;;5030646;28;20049;-68
2023/08/10 02:32:20;;;;;;;4.22;2.10;;;;;;;;;;5016266;28;20037;-68
2023/08/10 02:34:45;;;;;;;3.17;1.92;;;;;;;;;;5031875;28;20430;-68
2023/08/10 02:37:11;;;;;;;4.00;1.88;;;;;;;;;;5025741;28;20792;-68
2023/08/10 02:39:36;;;;;;;2.97;1.63;;;;;;;;;;5012357;28;20021;-68
2023/08/10 02:42:02;;;;;;;4.45;2.30;;;;;;;;;;5025442;28;20069;-68
2023/08/10 02:44:27;;;;;;;2.72;1.70;;;;;;;;;;5025759;28;20029;-68
2023/08/10 02:46:53;;;;;;;2.28;1.70;;;;;;;;;;5037454;28;20083;-68
2023/08/10 02:49:18;;;;;;;4.15;2.08;;;;;;;;;;5024568;28;20565;-68
2023/08/10 02:51:44;;;;;;;3.85;2.35;;;;;;;;;;5025551;28;20060;-67
2023/08/10 02:54:09;;;;;;;4.50;2.28;;;;;;;;;;5018357;28;20670;-68
2023/08/10 02:56:34;;;;;;;2.70;1.88;;;;;;;;;;5024718;28;20075;-68
2023/08/10 02:59:00;;;;;;;4.05;2.10;;;;;;;;;;5024987;28;20086;-68
2023/08/10 03:01:25;;;;;;;3.10;2.03;;;;;;;;;;5006980;28;20422;-68
2023/08/10 03:03:51;;;;;;;8.48;1.77;;;;;;;;;;5020123;28;20075;-67
2023/08/10 03:06:16;;;;;;;3.72;2.08;;;;;;;;;;5025390;28;20067;-68
2023/08/10 03:08:42;;;;;;;4.55;1.98;;;;;;;;;;5024568;28;20445;-68
2023/08/10 03:11:07;;;;;;;3.53;2.10;;;;;;;;;;5024901;28;20033;-68
2023/08/10 03:13:32;;;;;;;3.03;1.90;;;;;;;;;;5024376;28;20061;-68
2023/08/10 03:15:58;;;;;;;5.47;2.20;;;;;;;;;;5024582;28;20083;-68
2023/08/10 03:18:23;;;;;;;3.47;1.95;;;;;;;;;;5025288;28;20017;-68
2023/08/10 03:20:49;;;;;;;4.75;2.25;;;;;;;;;;5023811;28;20051;-68
2023/08/10 03:23:14;;;;;;;3.22;1.80;;;;;;;;;;5025554;28;20129;-68
2023/08/10 03:25:39;;;;;;;3.88;2.30;;;;;;;;;;5024591;28;20473;-68
2023/08/10 03:28:05;;;;;;;7.32;2.10;;;;;;;;;;5024853;28;20073;-68
2023/08/10 03:30:32;;;;;;;4.20;2.13;;;;;;;;;;5041486;28;20476;-68
2023/08/10 03:32:58;;;;;;;6.93;2.28;;;;;;;;;;5045225;28;20083;-68
2023/08/10 03:35:23;;;;;;;4.63;2.30;;;;;;;;;;5045323;28;20037;-67
2023/08/10 03:37:48;;;;;;;2.33;1.98;;;;;;;;;;5042265;28;20093;-68
2023/08/10 03:40:14;;;;;;;3.17;1.85;;;;;;;;;;5042196;28;20025;-68
2023/08/10 03:42:39;;;;;;;5.68;2.65;;;;;;;;;;5045970;28;20024;-68
2023/08/10 03:45:05;;;;;;;6.60;2.20;;;;;;;;;;5043127;28;20045;-68
2023/08/10 03:47:31;;;;;;;3.42;2.40;;;;;;;;;;5044561;28;20034;-68
2023/08/10 03:49:56;;;;;;;3.15;1.95;;;;;;;;;;5044918;28;20036;-68
2023/08/10 03:52:23;;;;;;;4.55;2.55;;;;;;;;;;5044265;28;20064;-68
2023/08/10 03:54:48;;;;;;;5.20;2.33;;;;;;;;;;5043981;28;20112;-68
2023/08/10 03:57:14;;;;;;;5.65;2.10;;;;;;;;;;5034962;28;20089;-68
2023/08/10 03:59:39;;;;;;;3.97;2.00;;;;;;;;;;5041000;28;20379;-68
2023/08/10 04:02:04;;;;;;;3.20;1.90;;;;;;;;;;5044556;28;20039;-68
2023/08/10 04:04:30;;;;;;;6.68;2.38;;;;;;;;;;5043951;28;20063;-68
2023/08/10 04:06:55;;;;;;;4.65;2.25;;;;;;;;;;5044417;28;20017;-68
2023/08/10 04:09:21;;;;;;;3.83;2.08;;;;;;;;;;5044451;28;20027;-68
2023/08/10 04:11:46;;;;;;;4.72;2.35;;;;;;;;;;5043949;28;20033;-69
2023/08/10 04:14:11;;;;;;;4.90;2.50;;;;;;;;;;5043044;28;20144;-68
2023/08/10 04:16:37;;;;;;;4.38;2.25;;;;;;;;;;5043905;28;20797;-68
2023/08/10 04:19:03;;;;;;;4.18;2.45;;;;;;;;;;5044604;28;20051;-68
2023/08/10 04:21:28;;;;;;;3.65;2.30;;;;;;;;;;5046202;28;20021;-68
2023/08/10 04:23:53;;;;;;;5.53;2.50;;;;;;;;;;5055666;28;20045;-68
2023/08/10 04:26:19;;;;;;;4.05;2.40;;;;;;;;;;5029136;28;20045;-68
2023/08/10 04:28:44;;;;;;;5.05;2.45;;;;;;;;;;5040840;28;20034;-68
2023/08/10 04:31:10;;;;;;;3.92;2.55;;;;;;;;;;5039674;28;20037;-68
2023/08/10 04:33:35;;;;;;;4.35;2.38;;;;;;;;;;5035382;28;20071;-68
2023/08/10 04:36:02;;;;;;;6.70;2.45;;;;;;;;;;5031100;28;20045;-68
2023/08/10 04:38:28;;;;;;;4.65;2.00;;;;;;;;;;5018532;28;20485;-68
2023/08/10 04:40:53;;;;;;;2.88;1.92;;;;;;;;;;5014674;28;20037;-68
2023/08/10 04:43:19;;;;;;;5.88;2.60;;;;;;;;;;5016482;28;20026;-68
2023/08/10 04:45:44;;;;;;;3.42;2.13;;;;;;;;;;5020570;28;20100;-67
2023/08/10 04:48:10;;;;;;;4.88;2.33;;;;;;;;;;5031266;28;20724;-68
2023/08/10 04:50:36;;;;;;;5.30;2.25;;;;;;;;;;5029023;28;20147;-68
2023/08/10 04:53:02;;;;;;;4.05;2.17;;;;;;;;;;5038302;28;20407;-68
2023/08/10 04:55:27;;;;;;;7.47;2.53;;;;;;;;;;5047534;28;20631;-68
2023/08/10 04:57:53;;;;;;;5.45;2.70;;;;;;;;;;5034913;28;20021;-67
2023/08/10 05:00:18;;;;;;;3.35;2.08;;;;;;;;;;5050223;28;20470;-68
2023/08/10 05:02:44;;;;;;;7.28;3.20;;;;;;;;;;5052824;28;20033;-68
2023/08/10 05:05:10;;;;;;;5.22;2.38;;;;;;;;;;5047518;28;20060;-68
2023/08/10 05:07:37;;;;;;;3.75;2.30;;;;;;;;;;5047179;28;20044;-68
2023/08/10 05:10:04;;;;;;;4.47;1.85;;;;;;;;;;5047331;28;20104;-68
2023/08/10 05:12:30;;;;;;;4.30;2.25;;;;;;;;;;5047138;28;20021;-68
2023/08/10 05:14:55;;;;;;;5.75;2.47;;;;;;;;;;5047055;28;20033;-68
2023/08/10 05:17:21;;;;;;;5.93;2.50;;;;;;;;;;5046779;28;20033;-68
2023/08/10 05:19:46;;;;;;;4.22;2.40;;;;;;;;;;5046869;28;20123;-68
2023/08/10 05:22:11;;;;;;;3.38;2.28;;;;;;;;;;5047005;28;20620;-68
2023/08/10 05:24:37;;;;;;;8.63;2.78;;;;;;;;;;5047537;28;20098;-68
2023/08/10 05:27:02;;;;;;;4.47;2.67;;;;;;;;;;5046425;28;20514;-68
2023/08/10 05:29:28;;;;;;;6.20;2.85;;;;;;;;;;5045231;28;20057;-68
2023/08/10 05:31:54;;;;;;;6.95;2.63;;;;;;;;;;5046032;28;20061;-68
2023/08/10 05:34:20;;;;;;;5.32;2.80;;;;;;;;;;5046336;28;20453;-68
2023/08/10 05:36:45;;;;;;;4.25;2.53;;;;;;;;;;5056761;28;20494;-68
2023/08/10 05:39:10;;;;;;;5.72;3.13;;;;;;;;;;5049715;28;20398;-68
2023/08/10 05:41:36;;;;;;;4.72;2.65;;;;;;;;;;5046609;28;20120;-68
2023/08/10 05:44:01;;;;;;;5.60;2.60;;;;;;;;;;5046448;28;20052;-68
2023/08/10 05:46:26;;;;;;;4.75;2.83;;;;;;;;;;5046408;28;20067;-68
2023/08/10 05:48:52;;;;;;;7.35;2.65;;;;;;;;;;5045087;28;20029;-68
2023/08/10 05:51:17;;;;;;;8.23;2.92;;;;;;;;;;5046278;28;20033;-68
2023/08/10 05:53:43;;;;;;;5.13;2.40;;;;;;;;;;5046186;28;20438;-68
2023/08/10 05:56:09;;;;;;;5.82;2.83;;;;;;;;;;5044975;28;20069;-68
2023/08/10 05:58:34;;;;;;;6.38;2.53;;;;;;;;;;5034349;28;20115;-67
2023/08/10 06:01:01;;;;;;;6.22;2.50;;;;;;;;;;5039529;28;20490;-68
2023/08/10 06:03:27;;;;;;;6.60;2.83;;;;;;;;;;5036647;28;20105;-68
2023/08/10 06:05:53;;;;;;;7.53;2.85;;;;;;;;;;5024274;28;20044;-67
2023/08/10 06:08:19;;;;;;;7.65;2.70;;;;;;;;;;5040977;28;20033;-68
2023/08/10 06:10:44;;;;;;;10.48;3.20;;;;;;;;;;5036039;28;20047;-68
2023/08/10 06:13:10;;;;;;;6.75;3.28;;;;;;;;;;5056902;28;20445;-68
2023/08/10 06:15:35;;;;;;;7.43;3.67;;;;;;;;;;5043888;28;20051;-68
2023/08/10 06:18:00;;;;;;;5.15;3.33;;;;;;;;;;5038878;28;20025;-68
2023/08/10 06:20:26;;;;;;;8.75;3.05;;;;;;;;;;5039535;28;20073;-68
2023/08/10 06:22:53;;;;;;;8.07;3.10;;;;;;;;;;5038528;28;20557;-67
2023/08/10 06:25:19;;;;;;;4.40;2.88;;;;;;;;;;5040141;28;20029;-68
2023/08/10 06:27:47;;;;;;;6.78;2.78;;;;;;;;;;5043009;28;20025;-68
2023/08/10 06:30:13;;;;;;;7.18;3.15;;;;;;;;;;5043276;28;20056;-68
2023/08/10 06:32:39;;;;;;;6.85;3.33;;;;;;;;;;5041187;28;20060;-68
2023/08/10 06:35:05;;;;;;;5.20;2.53;;;;;;;;;;5030614;28;20046;-68
2023/08/10 06:37:32;;;;;;;6.78;3.53;;;;;;;;;;5047814;28;20076;-68
2023/08/10 06:39:58;;;;;;;8.93;3.35;;;;;;;;;;5037618;28;20094;-68
2023/08/10 06:42:23;;;;;;;5.15;2.80;;;;;;;;;;5038048;28;20017;-68
2023/08/10 06:44:48;;;;;;;7.78;3.30;;;;;;;;;;5030820;28;20055;-67
2023/08/10 06:47:14;;;;;;;7.50;2.90;;;;;;;;;;5034621;28;20129;-68
2023/08/10 06:49:39;;;;;;;6.15;2.80;;;;;;;;;;5042805;28;20041;-68
2023/08/10 06:52:05;;;;;;;5.13;2.75;;;;;;;;;;5039786;28;20127;-68
2023/08/10 06:54:31;;;;;;;4.53;2.80;;;;;;;;;;5040585;28;20025;-68
2023/08/10 06:56:57;;;;;;;4.72;2.38;;;;;;;;;;5041118;28;20037;-68
2023/08/10 06:59:22;;;;;;;5.00;2.63;;;;;;;;;;5040815;28;20044;-68
2023/08/10 07:01:48;;;;;;;6.95;3.08;;;;;;;;;;5041992;28;20851;-68
2023/08/10 07:04:13;;;;;;;5.45;2.80;;;;;;;;;;5024056;28;20035;-68
2023/08/10 07:06:38;;;;;;;5.70;2.72;;;;;;;;;;5042929;28;20032;-68
2023/08/10 07:09:04;;;;;;;7.70;3.58;;;;;;;;;;5039651;28;20429;-68
2023/08/10 07:11:30;;;;;;;7.30;3.15;;;;;;;;;;5020708;28;20055;-69
2023/08/10 07:13:55;;;;;;;10.90;3.20;;;;;;;;;;5039492;28;20032;-68
2023/08/10 07:16:21;;;;;;;4.60;2.70;;;;;;;;;;5024462;28;20037;-68
2023/08/10 07:18:46;;;;;;;4.68;2.78;;;;;;;;;;5041208;28;20028;-68
2023/08/10 07:21:12;;;;;;;3.63;2.30;;;;;;;;;;5023242;28;20020;-68
2023/08/10 07:23:38;;;;;;;4.07;2.30;;;;;;;;;;5041946;28;20041;-69
2023/08/10 07:26:03;;;;;;;3.70;2.40;;;;;;;;;;5042419;28;20090;-69
2023/08/10 07:28:28;;;;;;;6.55;2.20;;;;;;;;;;5041549;28;20060;-68
2023/08/10 07:30:55;;;;;;;4.18;2.10;;;;;;;;;;5048091;28;20053;-68
2023/08/10 07:33:20;;;;;;;2.40;1.50;;;;;;;;;;5043113;28;20086;-69
2023/08/10 07:35:46;;;;;;;2.85;1.85;;;;;;;;;;5044315;28;20033;-68
2023/08/10 07:38:13;;;;;;;2.47;1.73;;;;;;;;;;5043747;28;20025;-68
2023/08/10 07:40:38;;;;;;;4.05;1.60;;;;;;;;;;5031115;28;20059;-68
2023/08/10 07:43:04;;;;;;;4.20;1.98;;;;;;;;;;5032465;28;20425;-68
2023/08/10 07:45:29;;;;;;;3.03;1.88;;;;;;;;;;5041300;28;20048;-68
2023/08/10 07:47:55;;;;;;;3.10;1.83;;;;;;;;;;5041723;28;20536;-68
2023/08/10 07:50:20;;;;;;;3.67;2.10;;;;;;;;;;5036720;28;20041;-68
2023/08/10 07:52:45;;;;;;;3.60;2.17;;;;;;;;;;5036671;28;20076;-68
2023/08/10 07:55:15;;;;;;;2.70;1.48;;;;;;;;;;5039148;28;20409;-68
2023/08/10 07:57:41;;;;;;;2.65;1.70;;;;;;;;;;5041299;28;20545;-68
2023/08/10 08:00:10;;;;;;;2.58;1.52;;;;;;;;;;5041411;28;20529;-68
2023/08/10 08:02:36;;;;;;;2.10;1.60;;;;;;;;;;5041781;28;20426;-69
2023/08/10 08:05:03;;;;;;;2.55;1.67;;;;;;;;;;5045805;28;20044;-68
2023/08/10 08:07:30;;;;;;;4.93;1.80;;;;;;;;;;5041012;28;20053;-69
2023/08/10 08:09:57;;;;;;;2.60;1.63;;;;;;;;;;5035844;28;20077;-69
2023/08/10 08:12:23;;;;;;;3.85;1.90;;;;;;;;;;5045526;28;20083;-68
2023/08/10 08:14:48;;;;;;;3.75;1.67;;;;;;;;;;5044093;28;20510;-68
2023/08/10 08:17:14;;;;;;;3.35;1.77;;;;;;;;;;5041705;28;20037;-68
2023/08/10 08:19:40;;;;;;;2.70;1.92;;;;;;;;;;5039734;28;20082;-68
2023/08/10 08:22:05;;;;;;;2.75;1.70;;;;;;;;;;5042433;28;20049;-68
2023/08/10 08:24:31;;;;;;;3.47;1.23;;;;;;;;;;5040279;28;20029;-66
2023/08/10 08:26:56;;;;;;;4.82;1.38;;;;;;;;;;5044548;28;20045;-67
2023/08/10 08:29:23;;;;;;;1.33;1.00;;;;;;;;;;5042358;28;20048;-68
2023/08/10 08:31:48;;;;;;;2.30;1.55;;;;;;;;;;5037017;28;20591;-68
2023/08/10 08:34:15;;;;;;;3.88;1.77;;;;;;;;;;5042588;28;20045;-67
2023/08/10 08:36:40;;;;;;;2.50;1.60;;;;;;;;;;5039628;28;20422;-67
2023/08/10 08:39:06;;;;;;;2.90;1.65;;;;;;;;;;5022306;28;20583;-67
2023/08/10 08:41:36;;;;;;;3.63;1.50;;;;;;;;;;5037534;28;20147;-68
2023/08/10 08:44:06;;;;;;;3.50;1.55;;;;;;;;;;5044076;28;20048;-67
2023/08/10 08:46:33;;;;;;;2.13;1.48;;;;;;;;;;5045134;28;20056;-68
2023/08/10 08:49:00;;;;;;;2.47;1.35;;;;;;;;;;5045528;28;20856;-68
2023/08/10 08:51:26;;;;;;;3.22;1.42;;;;;;;;;;5045622;28;20406;-68
2023/08/10 08:53:52;;;;;;;2.10;1.40;;;;;;;;;;5044969;28;20053;-68
2023/08/10 08:56:18;;;;;;;3.25;1.92;;;;;;;;;;5042479;28;20048;-68
2023/08/10 08:58:44;;;;;;;1.90;1.23;;;;;;;;;;5033844;28;20725;-67
2023/08/10 09:01:11;;;;;;;2.92;1.13;;;;;;;;;;5043252;28;20045;-67
2023/08/10 09:03:36;;;;;;;2.10;1.27;;;;;;;;;;5041372;28;20417;-68
2023/08/10 09:06:02;;;;;;;3.72;1.50;;;;;;;;;;5040317;28;20053;-67
2023/08/10 09:08:28;;;;;;;2.53;1.38;;;;;;;;;;5042153;28;20064;-67
2023/08/10 09:10:53;;;;;;;1.33;1.10;;;;;;;;;;5036227;28;20040;-67
2023/08/10 09:13:23;;;;;;;2.03;1.30;;;;;;;;;;5024371;28;20111;-67
2023/08/10 09:16:14;;;;;;;2.90;1.30;;;;;;;;;;5008360;28;20526;-68
2023/08/10 09:18:42;;;;;;;1.95;1.42;;;;;;;;;;5032919;28;20021;-67
2023/08/10 09:21:17;;;;;;;2.58;1.30;;;;;;;;;;5036086;28;20064;-67
2023/08/10 09:23:46;;;;;;;2.13;1.52;;;;;;;;;;5038872;28;20045;-68
2023/08/10 09:26:16;;;;;;;3.05;1.60;;;;;;;;;;5037501;28;20040;-67
2023/08/10 09:28:41;;;;;;;2.17;1.58;;;;;;;;;;5042289;28;20114;-68
2023/08/10 09:31:10;;;;;;;3.00;1.40;;;;;;;;;;5024667;28;20045;-68
2023/08/10 09:33:37;;;;;;;2.85;1.60;;;;;;;;;;5019189;28;20082;-68
2023/08/10 09:36:05;;;;;;;1.60;1.20;;;;;;;;;;5022013;28;20119;-68
2023/08/10 09:38:31;;;;;;;2.95;1.40;;;;;;;;;;5021026;28;20488;-68
2023/08/10 09:41:09;;;;;;;3.72;1.83;;;;;;;;;;5022434;28;20033;-68
2023/08/10 09:43:36;;;;;;;2.35;1.50;;;;;;;;;;5017890;28;20447;-68
2023/08/10 09:46:06;;;;;;;3.78;1.58;;;;;;;;;;5023036;28;20414;-68
2023/08/10 09:48:36;;;;;;;2.60;1.35;;;;;;;;;;5023187;28;20049;-68
2023/08/10 09:51:03;;;;;;;2.35;1.50;;;;;;;;;;5016445;28;20049;-68
2023/08/10 09:53:29;;;;;;;2.28;1.58;;;;;;;;;;5022087;28;20053;-68
2023/08/10 09:55:55;;;;;;;2.88;1.55;;;;;;;;;;5021444;28;20119;-68
2023/08/10 09:58:21;;;;;;;3.92;1.60;;;;;;;;;;5018002;28;20536;-67
2023/08/10 10:00:49;;;;;;;4.47;1.50;;;;;;;;;;5016136;28;20029;-68
2023/08/10 10:03:16;;;;;;;3.25;1.83;;;;;;;;;;5012132;28;20407;-68
2023/08/10 10:05:42;;;;;;;1.67;1.25;;;;;;;;;;5024309;28;20118;-68
2023/08/10 10:08:08;;;;;;;3.97;1.60;;;;;;;;;;5024248;28;20051;-68
2023/08/10 10:10:35;;;;;;;5.40;1.67;;;;;;;;;;5023041;28;20542;-68
2023/08/10 10:13:03;;;;;;;2.40;1.52;;;;;;;;;;5023241;28;20870;-67
2023/08/10 10:15:30;;;;;;;3.28;1.65;;;;;;;;;;5023841;28;20035;-67
2023/08/10 10:17:55;;;;;;;2.33;1.60;;;;;;;;;;5022202;28;20034;-68
2023/08/10 10:20:21;;;;;;;4.43;1.80;;;;;;;;;;5023501;28;20096;-68
2023/08/10 10:22:47;;;;;;;3.08;1.70;;;;;;;;;;5022849;28;20052;-68
2023/08/10 10:25:14;;;;;;;3.08;1.63;;;;;;;;;;5021566;28;20038;-68
2023/08/10 10:27:40;;;;;;;2.42;1.48;;;;;;;;;;5011011;28;20033;-68
2023/08/10 10:30:16;;;;;;;3.35;2.08;;;;;;;;;;5032675;28;20617;-68
2023/08/10 10:32:47;;;;;;;3.60;1.75;;;;;;;;;;5052770;28;20510;-68
2023/08/10 10:35:23;;;;;;;3.00;1.83;;;;;;;;;;5038739;28;24388;-68
2023/08/10 10:37:58;;;;;;;4.60;1.80;;;;;;;;;;5050833;28;20045;-68
2023/08/10 10:40:25;;;;;;;12.90;1.95;;;;;;;;;;5032666;28;20061;-68
2023/08/10 10:43:02;;;;;;;3.95;1.58;;;;;;;;;;5043155;28;20493;-68
2023/08/10 10:45:48;;;;;;;4.63;1.85;;;;;;;;;;5039724;28;20579;-68
2023/08/10 10:48:14;;;;;;;4.35;1.92;;;;;;;;;;5035804;28;20056;-68
2023/08/10 10:50:40;;;;;;;5.15;1.60;;;;;;;;;;5018598;28;20741;-68
2023/08/10 10:53:10;;;;;;;2.67;1.80;;;;;;;;;;4992652;28;20044;-68
2023/08/10 10:55:35;;;;;;;4.63;1.70;;;;;;;;;;5017804;28;20043;-68
2023/08/10 10:58:02;;;;;;;2.72;1.55;;;;;;;;;;5022376;28;20413;-68
2023/08/10 11:00:28;;;;;;;2.72;1.60;;;;;;;;;;5021124;28;20056;-68
2023/08/10 11:02:54;;;;;;;3.58;1.60;;;;;;;;;;5034058;28;20138;-68
2023/08/10 11:05:20;;;;;;;3.13;1.67;;;;;;;;;;5040351;28;20621;-68
2023/08/10 11:07:50;;;;;;;4.25;1.83;;;;;;;;;;5042978;28;20044;-68
2023/08/10 11:10:18;;;;;;;3.92;2.22;;;;;;;;;;5033294;28;20144;-68
2023/08/10 11:12:44;;;;;;;2.20;1.60;;;;;;;;;;5011724;28;20144;-68
2023/08/10 11:15:12;;;;;;;3.88;1.70;;;;;;;;;;5032773;28;20604;-68
2023/08/10 11:17:42;;;;;;;3.38;1.60;;;;;;;;;;5019232;28;20042;-68
2023/08/10 11:20:14;;;;;;;2.70;1.80;;;;;;;;;;5030368;28;20425;-68
2023/08/10 11:22:40;;;;;;;3.08;1.60;;;;;;;;;;5028966;28;20698;-68
2023/08/10 11:25:25;;;;;;;2.90;1.70;;;;;;;;;;5021081;28;20506;-69
2023/08/10 11:27:53;;;;;;;4.93;1.90;;;;;;;;;;5020995;28;20029;-68
2023/08/10 11:30:20;;;;;;;4.40;1.60;;;;;;;;;;5020726;28;20148;-68
2023/08/10 11:32:48;;;;;;;2.47;1.50;;;;;;;;;;5004965;28;20065;-68
2023/08/10 11:35:17;;;;;;;2.50;2.00;;;;;;;;;;5001431;28;20041;-68
2023/08/10 11:37:43;;;;;;;1.95;1.13;;;;;;;;;;5000929;28;20037;-68
2023/08/10 11:40:11;;;;;;;2.78;1.50;;;;;;;;;;5001558;28;20091;-68
2023/08/10 11:42:41;;;;;;;4.78;1.63;;;;;;;;;;5002460;28;20030;-68
2023/08/10 11:45:20;;;;;;;2.70;1.25;;;;;;;;;;4995341;28;20152;-68
2023/08/10 11:47:57;;;;;;;2.75;1.60;;;;;;;;;;4991881;28;20049;-69
2023/08/10 11:50:24;;;;;;;4.78;1.63;;;;;;;;;;4995515;28;20065;-68
2023/08/10 11:52:50;;;;;;;3.65;1.75;;;;;;;;;;5000900;28;20048;-68
2023/08/10 11:55:18;;;;;;;2.75;1.77;;;;;;;;;;4999635;28;20033;-67
2023/08/10 11:57:48;;;;;;;3.20;1.63;;;;;;;;;;5016649;28;20029;-68
2023/08/10 12:00:21;;;;;;;1.92;1.40;;;;;;;;;;5011530;28;20219;-68
2023/08/10 12:03:14;;;;;;;2.80;1.60;;;;;;;;;;4961260;28;20552;-68
2023/08/10 12:05:57;;;;;;;2.40;1.50;;;;;;;;;;5000452;28;20057;-69
2023/08/10 12:08:30;;;;;;;1.93;1.50;;;;;;;;;;5021025;28;20132;-69
2023/08/10 12:11:07;;;;;;;2.97;1.67;;;;;;;;;;5021731;28;20034;-69
2023/08/10 12:13:54;;;;;;;4.18;1.50;;;;;;;;;;5021593;28;20041;-69
2023/08/10 12:16:20;;;;;;;2.95;1.48;;;;;;;;;;5015314;28;20100;-69
2023/08/10 12:18:46;;;;;;;4.97;1.80;;;;;;;;;;5021986;28;20498;-68
2023/08/10 12:21:12;;;;;;;2.88;1.67;;;;;;;;;;5022777;28;20851;-69
2023/08/10 12:23:38;;;;;;;4.03;1.67;;;;;;;;;;5020814;28;20099;-69
2023/08/10 12:26:03;;;;;;;2.90;1.80;;;;;;;;;;5021343;28;20557;-69
2023/08/10 12:28:29;;;;;;;2.33;1.52;;;;;;;;;;5021820;28;20415;-68
2023/08/10 12:30:54;;;;;;;2.58;1.50;;;;;;;;;;5040387;28;20041;-69
2023/08/10 12:33:20;;;;;;;3.35;1.70;;;;;;;;;;5040857;28;20044;-71
2023/08/10 12:35:45;;;;;;;1.80;1.55;;;;;;;;;;5037129;28;20051;-69
2023/08/10 12:38:11;;;;;;;3.08;1.60;;;;;;;;;;5038948;28;20473;-69
2023/08/10 12:40:37;;;;;;;2.13;1.50;;;;;;;;;;5043208;28;20045;-69
2023/08/10 12:43:03;;;;;;;2.08;1.40;;;;;;;;;;5046275;28;20025;-69
2023/08/10 12:45:29;;;;;;;1.70;1.40;;;;;;;;;;5040897;28;20029;-70
2023/08/10 12:47:55;;;;;;;2.00;1.45;;;;;;;;;;5047418;28;20033;-69
2023/08/10 12:50:21;;;;;;;2.10;1.33;;;;;;;;;;5047178;28;20088;-69
2023/08/10 12:52:48;;;;;;;3.85;1.33;;;;;;;;;;5047182;28;20196;-69
2023/08/10 12:55:14;;;;;;;2.63;1.70;;;;;;;;;;5044655;28;20061;-69
2023/08/10 12:57:40;;;;;;;2.35;1.50;;;;;;;;;;5044191;28;20029;-69
2023/08/10 13:00:13;;;;;;;1.98;1.70;;;;;;;;;;5045210;28;20045;-70
2023/08/10 13:02:39;;;;;;;3.05;1.63;;;;;;;;;;5045232;28;20133;-69
2023/08/10 13:05:05;;;;;;;2.80;1.50;;;;;;;;;;5045996;28;20132;-69
2023/08/10 13:07:31;;;;;;;4.03;1.67;;;;;;;;;;5045217;28;20041;-69
2023/08/10 13:09:57;;;;;;;5.07;1.73;;;;;;;;;;5045561;28;20028;-69
2023/08/10 13:12:22;;;;;;;4.32;1.60;;;;;;;;;;5045591;28;20033;-69
2023/08/10 13:14:48;;;;;;;2.13;1.50;;;;;;;;;;5044368;28;20041;-69
2023/08/10 13:17:13;;;;;;;2.15;1.52;;;;;;;;;;5047229;28;20522;-69
2023/08/10 13:19:38;;;;;;;2.83;2.08;;;;;;;;;;5048453;28;20086;-69
2023/08/10 13:22:07;;;;;;;2.50;1.58;;;;;;;;;;5049286;28;20037;-69
2023/08/10 13:24:33;;;;;;;1.85;1.50;;;;;;;;;;5047007;28;20557;-69
2023/08/10 13:27:00;;;;;;;1.88;1.50;;;;;;;;;;5046405;28;20522;-69
2023/08/10 13:29:25;;;;;;;2.40;1.40;;;;;;;;;;5045825;28;20568;-69
2023/08/10 13:31:51;;;;;;;2.53;1.50;;;;;;;;;;5046930;28;20037;-69
2023/08/10 13:34:17;;;;;;;3.60;1.40;;;;;;;;;;5045018;28;20037;-68
2023/08/10 13:36:43;;;;;;;4.75;1.83;;;;;;;;;;5047165;28;20032;-70
2023/08/10 13:39:09;;;;;;;4.97;1.50;;;;;;;;;;5045813;28;20060;-69
2023/08/10 13:41:35;;;;;;;1.60;1.40;;;;;;;;;;5045372;28;20041;-69
2023/08/10 13:44:01;;;;;;;2.05;1.52;;;;;;;;;;5043991;28;20414;-69
2023/08/10 13:46:26;;;;;;;2.17;1.50;;;;;;;;;;5044298;28;20118;-69
2023/08/10 13:48:52;;;;;;;6.78;1.48;;;;;;;;;;5045182;28;20028;-69
2023/08/10 13:51:18;;;;;;;3.40;1.52;;;;;;;;;;5045899;28;20111;-69
2023/08/10 13:53:44;;;;;;;2.38;1.60;;;;;;;;;;5037521;28;20037;-70
2023/08/10 13:56:09;;;;;;;4.90;1.60;;;;;;;;;;5045754;28;20037;-70
2023/08/10 13:58:34;;;;;;;2.78;1.65;;;;;;;;;;5044876;28;20827;-70
2023/08/10 14:01:00;;;;;;;2.13;1.52;;;;;;;;;;5045172;28;20033;-70
2023/08/10 14:03:25;;;;;;;2.28;1.40;;;;;;;;;;5046790;28;20024;-70
2023/08/10 14:05:51;;;;;;;5.75;2.00;;;;;;;;;;5045338;28;20036;-70
2023/08/10 14:08:17;;;;;;;2.88;1.73;;;;;;;;;;5046116;28;20068;-70
2023/08/10 14:10:42;;;;;;;7.25;1.55;;;;;;;;;;5045631;28;20124;-69
2023/08/10 14:13:08;;;;;;;2.33;1.60;;;;;;;;;;5045818;28;20029;-69
2023/08/10 14:15:33;;;;;;;1.58;1.40;;;;;;;;;;5046280;28;20029;-70
2023/08/10 14:17:58;;;;;;;2.42;1.50;;;;;;;;;;5045851;28;20083;-70
2023/08/10 14:20:24;;;;;;;5.15;1.80;;;;;;;;;;5045367;28;20442;-70
2023/08/10 14:22:49;;;;;;;2.13;1.60;;;;;;;;;;5045704;28;20036;-70
2023/08/10 14:25:15;;;;;;;2.13;1.63;;;;;;;;;;5045697;28;20121;-69
2023/08/10 14:27:40;;;;;;;2.17;1.90;;;;;;;;;;5046130;28;20037;-69
2023/08/10 14:30:06;;;;;;;3.13;1.60;;;;;;;;;;5045501;28;20057;-69
2023/08/10 14:32:31;;;;;;;2.53;1.63;;;;;;;;;;5044818;28;20421;-69
2023/08/10 14:34:57;;;;;;;2.78;1.63;;;;;;;;;;5045986;28;20039;-70
2023/08/10 14:37:23;;;;;;;2.28;1.73;;;;;;;;;;5043639;28;20029;-69
2023/08/10 14:39:48;;;;;;;3.45;1.95;;;;;;;;;;5045728;28;20768;-69
2023/08/10 14:42:13;;;;;;;2.55;1.90;;;;;;;;;;5048463;28;20032;-69